createdAt,value
2022-08-08T00:02:36.115Z,6.00
2022-08-08T00:08:20.943Z,4.97
2022-08-08T00:14:16.327Z,5.30
2022-08-08T00:19:16.308Z,5.20
2022-08-08T00:24:34.457Z,7.68
2022-08-08T00:29:55.090Z,5.35
2022-08-08T00:35:22.621Z,4.88
2022-08-08T00:41:09.169Z,4.70
2022-08-08T00:45:59.875Z,7.35
2022-08-08T00:51:33.603Z,4.45
2022-08-08T00:57:12.810Z,4.93
2022-08-08T01:03:58.583Z,5.35
2022-08-08T01:08:08.273Z,5.07
2022-08-08T01:13:53.028Z,4.75
2022-08-08T01:19:42.290Z,5.05
2022-08-08T01:25:40.588Z,4.72
2022-08-08T01:32:02.946Z,5.03
2022-08-08T01:36:56.203Z,4.53
2022-08-08T01:42:19.542Z,4.63
2022-08-08T01:48:15.736Z,4.55
2022-08-08T01:55:17.290Z,5.75
2022-08-08T02:00:02.041Z,7.15
2022-08-08T02:05:56.485Z,4.53
2022-08-08T02:11:52.749Z,4.10
2022-08-08T02:16:59.547Z,5.05
2022-08-08T02:22:45.836Z,5.72
2022-08-08T02:28:01.370Z,4.40
2022-08-08T02:33:41.542Z,4.63
2022-08-08T02:39:41.929Z,3.95
2022-08-08T02:44:57.046Z,4.75
2022-08-08T02:50:34.028Z,7.32
2022-08-08T02:55:48.777Z,4.35
2022-08-08T03:01:15.054Z,5.43
2022-08-08T03:06:34.764Z,4.72
2022-08-08T03:12:05.991Z,6.57
2022-08-08T03:17:25.666Z,6.40
2022-08-08T03:22:57.058Z,5.65
2022-08-08T03:28:21.908Z,4.83
2022-08-08T03:33:57.327Z,5.38
2022-08-08T03:38:58.562Z,5.20
2022-08-08T03:44:09.562Z,4.60
2022-08-08T03:49:57.431Z,6.25
2022-08-08T03:55:01.636Z,6.07
2022-08-08T04:00:18.199Z,4.30
2022-08-08T04:05:30.484Z,5.88
2022-08-08T04:10:39.476Z,4.95
2022-08-08T04:15:55.127Z,4.68
2022-08-08T04:21:09.458Z,6.63
2022-08-08T04:26:14.860Z,6.22
2022-08-08T04:31:57.382Z,5.93
2022-08-08T04:36:41.128Z,7.18
2022-08-08T04:41:43.899Z,5.55
2022-08-08T04:46:48.918Z,8.80
2022-08-08T04:51:57.847Z,5.28
2022-08-08T04:57:02.253Z,5.53
2022-08-08T05:02:05.423Z,5.47
2022-08-08T05:07:10.850Z,5.78
2022-08-08T05:12:20.914Z,6.53
2022-08-08T05:17:26.169Z,5.15
2022-08-08T05:22:29.778Z,5.80
2022-08-08T05:27:41.751Z,6.05
2022-08-08T05:32:50.069Z,6.00
2022-08-08T05:38:04.825Z,5.13
2022-08-08T05:44:02.097Z,6.18
2022-08-08T05:48:55.979Z,4.00
2022-08-08T05:54:26.786Z,5.30
2022-08-08T06:00:01.442Z,7.47
2022-08-08T06:05:06.791Z,4.90
2022-08-08T06:10:32.210Z,7.10
2022-08-08T06:15:51.424Z,5.63
2022-08-08T06:21:28.397Z,4.88
2022-08-08T06:26:50.472Z,5.85
2022-08-08T06:32:10.460Z,5.17
2022-08-08T06:37:24.778Z,5.22
2022-08-08T06:42:38.949Z,5.25
2022-08-08T06:47:52.151Z,5.55
2022-08-08T06:53:14.319Z,5.45
2022-08-08T06:58:30.231Z,6.13
2022-08-08T07:04:36.370Z,5.78
2022-08-08T07:09:21.276Z,5.47
2022-08-08T07:14:34.121Z,6.40
2022-08-08T07:19:49.670Z,4.28
2022-08-08T07:25:00.160Z,5.80
2022-08-08T07:30:08.294Z,6.72
2022-08-08T07:35:17.890Z,5.28
2022-08-08T07:40:30.113Z,3.75
2022-08-08T07:46:04.815Z,4.63
2022-08-08T07:51:04.408Z,7.07
2022-08-08T07:56:36.311Z,7.10
2022-08-08T08:02:34.327Z,4.35
2022-08-08T08:07:22.669Z,5.55
2022-08-08T08:12:43.039Z,5.47
2022-08-08T08:17:55.846Z,4.87
2022-08-08T08:23:00.459Z,4.10
2022-08-08T08:28:04.209Z,5.05
2022-08-08T08:33:13.649Z,4.68
2022-08-08T08:38:18.773Z,4.68
2022-08-08T08:43:32.779Z,3.83
2022-08-08T08:48:38.207Z,4.22
2022-08-08T08:54:01.052Z,4.25
2022-08-08T08:59:15.263Z,4.68
2022-08-08T09:04:31.657Z,5.65
2022-08-08T09:09:57.619Z,2.90
2022-08-08T09:15:12.246Z,3.53
2022-08-08T09:22:01.318Z,5.47
2022-08-08T09:25:57.750Z,6.30
2022-08-08T09:31:42.570Z,3.13
2022-08-08T09:37:10.277Z,4.70
2022-08-08T09:42:22.259Z,4.43
2022-08-08T09:48:09.768Z,5.00
2022-08-08T09:53:05.777Z,3.30
2022-08-08T09:58:27.994Z,4.50
2022-08-08T10:03:56.132Z,4.07
2022-08-08T10:09:00.307Z,4.28
2022-08-08T10:14:27.658Z,4.43
2022-08-08T10:19:57.388Z,4.28
2022-08-08T10:25:15.526Z,3.50
2022-08-08T10:30:57.304Z,3.23
2022-08-08T10:36:09.213Z,3.60
2022-08-08T10:41:25.959Z,3.58
2022-08-08T10:46:39.279Z,7.97
2022-08-08T10:51:50.841Z,5.72
2022-08-08T10:57:03.875Z,4.40
2022-08-08T11:02:07.804Z,3.50
2022-08-08T11:07:38.971Z,4.68
2022-08-08T11:12:38.338Z,4.47
2022-08-08T11:17:59.791Z,5.30
2022-08-08T11:23:06.091Z,4.13
2022-08-08T11:28:11.453Z,3.33
2022-08-08T11:33:15.255Z,4.82
2022-08-08T11:38:39.619Z,3.97
2022-08-08T11:43:42.865Z,4.78
2022-08-08T11:48:47.619Z,4.73
2022-08-08T11:53:59.062Z,4.95
2022-08-08T11:59:10.002Z,3.97
2022-08-08T12:04:12.980Z,3.28
2022-08-08T12:09:17.322Z,3.65
2022-08-08T12:14:29.201Z,5.60
2022-08-08T12:19:51.353Z,4.03
2022-08-08T12:24:56.280Z,4.82
2022-08-08T12:30:01.885Z,4.60
2022-08-08T12:35:18.218Z,4.35
2022-08-08T12:40:22.534Z,5.53
2022-08-08T12:46:00.014Z,4.88
2022-08-08T12:50:58.715Z,3.70
2022-08-08T12:56:17.999Z,4.15
2022-08-08T13:01:37.830Z,4.57
2022-08-08T13:06:52.022Z,5.07
2022-08-08T13:12:26.893Z,3.40
2022-08-08T13:18:10.059Z,6.80
2022-08-08T13:22:59.307Z,4.63
2022-08-08T13:28:13.278Z,4.30
2022-08-08T13:33:20.367Z,5.73
2022-08-08T13:38:24.244Z,4.90
2022-08-08T13:43:31.585Z,4.38
2022-08-08T13:48:44.184Z,4.65
2022-08-08T13:54:00.609Z,4.18
2022-08-08T13:59:07.160Z,3.10
2022-08-08T14:04:21.951Z,5.40
2022-08-08T14:10:04.808Z,4.70
2022-08-08T14:14:54.542Z,3.95
2022-08-08T14:20:14.877Z,3.67
2022-08-08T14:25:54.142Z,4.40
2022-08-08T14:31:09.780Z,4.13
2022-08-08T14:36:14.170Z,5.53
2022-08-08T14:41:53.787Z,3.72
2022-08-08T14:46:43.787Z,3.13
2022-08-08T14:51:52.321Z,6.77
2022-08-08T14:56:58.097Z,4.25
2022-08-08T15:02:01.649Z,5.75
2022-08-08T15:07:04.523Z,4.03
2022-08-08T15:12:07.723Z,6.53
2022-08-08T15:17:11.742Z,3.43
2022-08-08T15:22:18.100Z,3.10
2022-08-08T15:28:04.585Z,3.10
2022-08-08T15:32:49.723Z,4.55
2022-08-08T15:37:52.595Z,4.30
2022-08-08T15:42:56.433Z,3.93
2022-08-08T15:48:15.148Z,5.70
2022-08-08T15:53:19.734Z,4.32
2022-08-08T15:58:28.294Z,3.67
2022-08-08T16:03:34.723Z,5.63
2022-08-08T16:08:38.352Z,3.53
2022-08-08T16:14:01.139Z,3.75
2022-08-08T16:19:04.206Z,4.53
2022-08-08T16:24:10.295Z,3.47
2022-08-08T16:29:16.400Z,4.13
2022-08-08T16:34:21.589Z,3.50
2022-08-08T16:40:01.428Z,3.60
2022-08-08T16:44:54.399Z,5.13
2022-08-08T16:49:59.145Z,3.70
2022-08-08T16:55:34.003Z,6.80
2022-08-08T17:00:27.741Z,3.87
2022-08-08T17:05:44.683Z,4.32
2022-08-08T17:10:58.088Z,4.30
2022-08-08T17:16:02.349Z,3.42
2022-08-08T17:21:09.696Z,4.05
2022-08-08T17:26:12.979Z,4.90
2022-08-08T17:31:44.743Z,4.70
2022-08-08T17:36:58.014Z,5.88
2022-08-08T17:42:05.246Z,3.42
2022-08-08T17:47:09.618Z,5.38
2022-08-08T17:52:12.665Z,5.53
2022-08-08T17:57:15.724Z,5.80
2022-08-08T18:02:28.569Z,7.32
2022-08-08T18:08:01.727Z,5.85
2022-08-08T18:12:55.916Z,6.25
2022-08-08T18:18:09.724Z,9.93
2022-08-08T18:23:23.546Z,7.30
2022-08-08T18:28:27.160Z,5.40
2022-08-08T18:34:11.177Z,6.95
2022-08-08T18:38:53.079Z,7.35
2022-08-08T18:43:56.161Z,5.03
2022-08-08T18:48:59.164Z,5.43
2022-08-08T18:54:13.706Z,6.60
2022-08-08T18:59:34.378Z,7.38
2022-08-08T19:04:38.006Z,6.40
2022-08-08T19:09:49.299Z,6.03
2022-08-08T19:15:04.705Z,7.57
2022-08-08T19:20:08.956Z,8.73
2022-08-08T19:26:01.891Z,7.35
2022-08-08T19:30:38.848Z,9.38
2022-08-08T19:36:08.693Z,8.50
2022-08-08T19:41:12.868Z,9.65
2022-08-08T19:46:24.403Z,8.73
2022-08-08T19:51:43.190Z,10.23
2022-08-08T19:56:48.824Z,10.98
2022-08-08T20:02:02.977Z,9.23
2022-08-08T20:08:28.650Z,8.70
2022-08-08T20:12:35.196Z,10.63
2022-08-08T20:17:40.213Z,9.23
2022-08-08T20:22:44.964Z,9.43
2022-08-08T20:27:50.289Z,8.47
2022-08-08T20:32:57.007Z,8.43
2022-08-08T20:38:00.526Z,7.22
2022-08-08T20:43:13.250Z,9.55
2022-08-08T20:48:28.310Z,11.55
2022-08-08T20:54:00.040Z,8.17
2022-08-08T20:58:54.725Z,9.65
2022-08-08T21:04:01.406Z,10.77
2022-08-08T21:09:04.926Z,8.05
2022-08-08T21:14:07.836Z,8.95
2022-08-08T21:19:11.008Z,9.80
2022-08-08T21:24:25.514Z,12.30
2022-08-08T21:30:04.506Z,11.27
2022-08-08T21:34:56.575Z,10.20
2022-08-08T21:40:00.205Z,8.32
2022-08-08T21:45:44.905Z,7.87
2022-08-08T21:50:31.424Z,9.48
2022-08-08T21:56:19.775Z,7.53
2022-08-08T22:00:58.672Z,7.90
2022-08-08T22:06:07.461Z,9.70
2022-08-08T22:11:51.289Z,7.70
2022-08-08T22:16:38.331Z,8.48
2022-08-08T22:21:41.220Z,7.60
2022-08-08T22:27:02.375Z,9.88
2022-08-08T22:32:06.670Z,8.80
2022-08-08T22:37:14.865Z,8.30
2022-08-08T22:42:31.826Z,9.15
2022-08-08T22:47:38.588Z,10.52
2022-08-08T22:53:00.001Z,7.20
2022-08-08T22:58:07.039Z,8.00
2022-08-08T23:03:10.067Z,6.80
2022-08-08T23:08:19.823Z,9.10
2022-08-08T23:13:23.040Z,8.15
2022-08-08T23:18:29.996Z,6.53
2022-08-08T23:23:33.199Z,8.07
2022-08-08T23:28:51.720Z,8.27
2022-08-08T23:34:16.963Z,8.40
2022-08-08T23:39:17.090Z,8.00
2022-08-08T23:44:20.714Z,7.93
2022-08-08T23:49:27.210Z,8.40
2022-08-08T23:54:43.171Z,7.20
